createdAt,value
2023-01-27T00:00:40.133Z,10.05
2023-01-27T00:03:15.581Z,10.55
2023-01-27T00:05:45.946Z,10.43
2023-01-27T00:08:16.451Z,10.25
2023-01-27T00:10:46.856Z,9.85
2023-01-27T00:13:27.676Z,10.88
2023-01-27T00:15:58.447Z,10.55
2023-01-27T00:18:31.202Z,10.20
2023-01-27T00:21:13.982Z,9.80
2023-01-27T00:23:56.586Z,9.90
2023-01-27T00:26:26.982Z,8.13
2023-01-27T00:28:57.198Z,8.98
2023-01-27T00:31:46.203Z,8.23
2023-01-27T00:34:19.021Z,8.82
2023-01-27T00:36:49.339Z,9.70
2023-01-27T00:39:19.589Z,9.20
2023-01-27T00:41:49.862Z,10.07
2023-01-27T00:44:20.315Z,10.45
2023-01-27T00:46:50.554Z,9.88
2023-01-27T00:49:24.325Z,9.68
2023-01-27T00:51:55.163Z,11.23
2023-01-27T00:54:25.682Z,10.52
2023-01-27T00:56:55.907Z,10.05
2023-01-27T00:59:28.665Z,9.88
2023-01-27T01:01:59.061Z,8.82
2023-01-27T01:04:32.112Z,10.82
2023-01-27T01:07:02.296Z,9.90
2023-01-27T01:09:33.015Z,10.77
2023-01-27T01:12:03.355Z,10.57
2023-01-27T01:14:33.724Z,10.13
2023-01-27T01:17:03.988Z,10.93
2023-01-27T01:19:37.162Z,11.85
2023-01-27T01:22:07.339Z,10.48
2023-01-27T01:24:37.806Z,10.75
2023-01-27T01:27:08.026Z,9.57
2023-01-27T01:29:38.547Z,10.75
2023-01-27T01:32:10.032Z,9.77
2023-01-27T01:34:43.042Z,9.38
2023-01-27T01:37:13.742Z,10.60
2023-01-27T01:39:44.246Z,9.75
2023-01-27T01:42:14.393Z,11.57
2023-01-27T01:44:47.357Z,11.82
2023-01-27T01:47:19.450Z,11.02
2023-01-27T01:49:52.697Z,12.48
2023-01-27T01:52:24.297Z,13.43
2023-01-27T01:54:59.215Z,11.60
2023-01-27T01:57:34.671Z,12.23
2023-01-27T02:00:09.706Z,11.70
2023-01-27T02:02:42.055Z,11.27
2023-01-27T02:05:21.702Z,11.68
2023-01-27T02:07:58.453Z,12.27
2023-01-27T02:10:29.114Z,11.82
2023-01-27T02:12:59.308Z,11.68
2023-01-27T02:15:29.949Z,11.23
2023-01-27T02:18:01.958Z,10.85
2023-01-27T02:20:43.912Z,10.40
2023-01-27T02:23:27.297Z,10.00
2023-01-27T02:26:05.273Z,8.93
2023-01-27T02:28:35.780Z,9.95
2023-01-27T02:31:06.444Z,10.55
2023-01-27T02:33:36.874Z,10.13
2023-01-27T02:36:12.274Z,10.30
2023-01-27T02:38:46.880Z,9.85
2023-01-27T02:41:27.632Z,10.52
2023-01-27T02:44:00.875Z,10.60
2023-01-27T02:46:31.410Z,9.17
2023-01-27T02:49:01.869Z,11.15
2023-01-27T02:51:32.377Z,10.68
2023-01-27T02:54:02.490Z,9.90
2023-01-27T02:56:35.681Z,8.77
2023-01-27T02:59:06.249Z,8.90
2023-01-27T03:01:36.693Z,10.43
2023-01-27T03:04:08.800Z,10.18
2023-01-27T03:06:39.077Z,10.02
2023-01-27T03:09:10.749Z,9.40
2023-01-27T03:11:56.235Z,9.68
2023-01-27T03:14:38.990Z,8.93
2023-01-27T03:17:21.662Z,10.70
2023-01-27T03:19:53.431Z,9.77
2023-01-27T03:22:23.786Z,10.25
2023-01-27T03:24:53.990Z,9.80
2023-01-27T03:27:26.971Z,10.02
2023-01-27T03:30:00.421Z,10.88
2023-01-27T03:32:32.902Z,8.90
2023-01-27T03:35:04.071Z,10.23
2023-01-27T03:37:47.560Z,9.75
2023-01-27T03:40:30.787Z,10.33
2023-01-27T03:43:16.850Z,10.32
2023-01-27T03:46:03.745Z,10.52
2023-01-27T03:48:34.462Z,9.73
2023-01-27T03:51:07.138Z,8.20
2023-01-27T03:53:38.047Z,8.55
2023-01-27T03:56:09.351Z,8.95
2023-01-27T03:58:43.021Z,8.90
2023-01-27T04:01:17.738Z,9.23
2023-01-27T04:04:01.397Z,9.05
2023-01-27T04:06:45.929Z,8.67
2023-01-27T04:09:22.073Z,7.57
2023-01-27T04:11:56.128Z,7.97
2023-01-27T04:14:31.023Z,7.50
2023-01-27T04:17:02.783Z,7.60
2023-01-27T04:19:33.982Z,7.20
2023-01-27T04:22:04.832Z,6.55
2023-01-27T04:24:35.339Z,6.65
2023-01-27T04:27:07.131Z,7.20
2023-01-27T04:29:42.319Z,7.13
2023-01-27T04:32:13.911Z,6.40
2023-01-27T04:34:44.945Z,6.50
2023-01-27T04:37:15.222Z,7.63
2023-01-27T04:39:47.547Z,7.25
2023-01-27T04:42:17.783Z,7.05
2023-01-27T04:44:50.682Z,7.72
2023-01-27T04:47:20.924Z,6.38
2023-01-27T04:49:54.045Z,7.05
2023-01-27T04:52:24.456Z,6.90
2023-01-27T04:54:54.693Z,6.63
2023-01-27T04:57:25.854Z,5.90
2023-01-27T04:59:58.866Z,7.13
2023-01-27T05:02:29.063Z,7.10
2023-01-27T05:04:59.398Z,5.80
2023-01-27T05:07:31.311Z,6.38
2023-01-27T05:10:02.777Z,6.47
2023-01-27T05:12:33.293Z,5.95
2023-01-27T05:15:06.310Z,6.75
2023-01-27T05:17:37.093Z,7.15
2023-01-27T05:20:09.574Z,6.55
2023-01-27T05:22:43.296Z,5.20
2023-01-27T05:25:14.136Z,5.82
2023-01-27T05:27:44.532Z,6.18
2023-01-27T05:30:17.889Z,6.88
2023-01-27T05:32:49.700Z,6.00
2023-01-27T05:35:20.264Z,5.22
2023-01-27T05:37:50.531Z,5.82
2023-01-27T05:40:21.438Z,5.85
2023-01-27T05:42:54.044Z,4.85
2023-01-27T05:45:27.201Z,5.43
2023-01-27T05:47:57.624Z,6.13
2023-01-27T05:50:28.069Z,6.38
2023-01-27T05:52:58.294Z,6.57
2023-01-27T05:55:28.804Z,5.70
2023-01-27T05:57:59.045Z,6.35
2023-01-27T06:00:31.954Z,6.40
2023-01-27T06:03:02.170Z,5.45
2023-01-27T06:05:32.597Z,5.55
2023-01-27T06:08:02.770Z,6.40
2023-01-27T06:10:37.445Z,4.00
2023-01-27T06:13:07.668Z,6.93
2023-01-27T06:15:43.635Z,5.78
2023-01-27T06:18:14.303Z,6.22
2023-01-27T06:20:45.116Z,7.75
2023-01-27T06:23:17.419Z,6.78
2023-01-27T06:25:49.405Z,6.45
2023-01-27T06:28:28.573Z,7.45
2023-01-27T06:31:08.688Z,6.30
2023-01-27T06:33:39.000Z,6.45
2023-01-27T06:36:12.703Z,5.85
2023-01-27T06:38:43.830Z,5.38
2023-01-27T06:41:14.216Z,7.63
2023-01-27T06:43:44.468Z,8.15
2023-01-27T06:46:18.250Z,9.00
2023-01-27T06:48:48.478Z,7.85
2023-01-27T06:51:19.013Z,7.43
2023-01-27T06:53:49.296Z,8.10
2023-01-27T06:56:19.590Z,4.90
2023-01-27T06:58:49.870Z,7.03
2023-01-27T07:01:23.202Z,7.40
2023-01-27T07:03:53.544Z,7.90
2023-01-27T07:06:24.079Z,7.05
2023-01-27T07:08:54.829Z,6.90
2023-01-27T07:11:26.547Z,4.47
2023-01-27T07:13:56.692Z,5.20
2023-01-27T07:16:29.873Z,6.40
2023-01-27T07:19:00.052Z,5.80
2023-01-27T07:21:30.455Z,6.28
2023-01-27T07:24:00.741Z,5.70
2023-01-27T07:26:31.134Z,5.25
2023-01-27T07:29:04.142Z,6.63
2023-01-27T07:31:37.415Z,5.90
2023-01-27T07:34:07.625Z,6.70
2023-01-27T07:36:38.019Z,6.68
2023-01-27T07:39:08.396Z,5.88
2023-01-27T07:41:38.664Z,5.60
2023-01-27T07:44:09.377Z,6.55
2023-01-27T07:46:42.269Z,6.57
2023-01-27T07:49:12.808Z,7.30
2023-01-27T07:51:43.018Z,5.93
2023-01-27T07:54:13.606Z,5.15
2023-01-27T07:56:43.855Z,5.72
2023-01-27T07:59:14.776Z,6.43
2023-01-27T08:01:48.361Z,5.00
2023-01-27T08:04:18.796Z,4.85
2023-01-27T08:06:49.031Z,5.80
2023-01-27T08:09:19.751Z,5.68
2023-01-27T08:11:49.936Z,5.88
2023-01-27T08:14:20.278Z,4.40
2023-01-27T08:16:53.332Z,6.03
2023-01-27T08:19:24.168Z,6.03
2023-01-27T08:21:54.494Z,5.93
2023-01-27T08:24:24.850Z,5.07
2023-01-27T08:26:55.311Z,5.22
2023-01-27T08:29:25.729Z,7.38
2023-01-27T08:31:58.589Z,5.22
2023-01-27T08:34:29.247Z,5.50
2023-01-27T08:36:59.461Z,6.22
2023-01-27T08:39:33.294Z,6.03
2023-01-27T08:42:03.447Z,5.20
2023-01-27T08:44:33.826Z,5.13
2023-01-27T08:47:06.760Z,5.55
2023-01-27T08:49:37.085Z,6.10
2023-01-27T08:52:07.979Z,6.00
2023-01-27T08:54:38.311Z,4.50
2023-01-27T08:57:08.642Z,5.68
2023-01-27T08:59:38.929Z,6.05
2023-01-27T09:02:15.620Z,5.47
2023-01-27T09:04:45.882Z,5.03
2023-01-27T09:07:19.115Z,5.20
2023-01-27T09:10:04.230Z,6.60
2023-01-27T09:12:43.749Z,4.30
2023-01-27T09:15:16.009Z,3.50
2023-01-27T09:17:48.954Z,4.88
2023-01-27T09:20:22.806Z,5.07
2023-01-27T09:22:53.058Z,4.10
2023-01-27T09:25:23.646Z,4.63
2023-01-27T09:27:57.339Z,4.97
2023-01-27T09:30:29.106Z,4.75
2023-01-27T09:33:03.864Z,5.95
2023-01-27T09:35:42.521Z,4.30
2023-01-27T09:38:14.331Z,4.13
2023-01-27T09:41:01.686Z,4.07
2023-01-27T09:44:03.879Z,5.13
2023-01-27T09:46:49.415Z,5.00
2023-01-27T09:49:48.137Z,5.15
2023-01-27T09:52:48.106Z,4.43
2023-01-27T09:55:24.980Z,4.82
2023-01-27T09:58:02.608Z,4.28
2023-01-27T10:00:53.069Z,5.90
2023-01-27T10:03:49.690Z,5.07
2023-01-27T10:06:36.451Z,5.18
2023-01-27T10:09:46.121Z,4.50
2023-01-27T10:12:30.915Z,5.45
2023-01-27T10:15:13.286Z,6.20
2023-01-27T10:17:54.267Z,4.82
2023-01-27T10:20:31.679Z,5.15
2023-01-27T10:23:18.258Z,4.90
2023-01-27T10:25:59.682Z,6.43
2023-01-27T10:28:33.760Z,5.85
2023-01-27T10:31:05.367Z,5.93
2023-01-27T10:33:48.917Z,5.60
2023-01-27T10:36:28.804Z,3.50
2023-01-27T10:39:13.206Z,6.30
2023-01-27T10:41:53.872Z,6.25
2023-01-27T10:44:41.915Z,6.38
2023-01-27T10:47:19.693Z,6.25
2023-01-27T10:49:55.886Z,7.05
2023-01-27T10:52:30.235Z,6.85
2023-01-27T10:55:09.586Z,6.60
2023-01-27T10:57:43.968Z,6.65
2023-01-27T11:00:51.435Z,5.82
2023-01-27T11:03:17.640Z,4.70
2023-01-27T11:05:55.229Z,5.80
2023-01-27T11:08:29.182Z,6.00
2023-01-27T11:11:18.694Z,7.32
2023-01-27T11:13:49.188Z,5.78
2023-01-27T11:16:21.294Z,6.15
2023-01-27T11:18:59.942Z,6.43
2023-01-27T11:21:34.667Z,7.28
2023-01-27T11:24:19.281Z,7.80
2023-01-27T11:27:00.550Z,6.45
2023-01-27T11:29:39.504Z,4.82
2023-01-27T11:32:19.834Z,7.25
2023-01-27T11:35:03.015Z,5.82
2023-01-27T11:37:36.985Z,6.53
2023-01-27T11:40:16.352Z,5.82
2023-01-27T11:42:51.769Z,6.25
2023-01-27T11:45:23.968Z,5.82
2023-01-27T11:47:58.144Z,5.18
2023-01-27T11:50:33.401Z,5.57
2023-01-27T11:53:14.197Z,6.55
2023-01-27T11:55:48.880Z,5.65
2023-01-27T11:58:27.015Z,4.03
2023-01-27T12:01:01.426Z,5.78
2023-01-27T12:03:46.039Z,5.35
2023-01-27T12:08:50.563Z,2.80
2023-01-27T12:11:24.613Z,6.35
2023-01-27T12:16:37.353Z,7.80
2023-01-27T12:19:21.799Z,6.47
2023-01-27T12:21:55.357Z,6.40
2023-01-27T12:24:31.868Z,5.68
2023-01-27T12:27:03.359Z,6.80
2023-01-27T12:29:44.325Z,6.28
2023-01-27T12:32:20.025Z,4.50
2023-01-27T12:34:56.457Z,6.45
2023-01-27T12:37:30.756Z,6.72
2023-01-27T12:40:04.105Z,5.38
2023-01-27T12:42:41.117Z,6.65
2023-01-27T12:45:35.034Z,6.60
2023-01-27T12:48:22.965Z,5.88
2023-01-27T12:50:59.244Z,6.80
2023-01-27T12:53:30.512Z,6.15
2023-01-27T12:56:04.339Z,5.53
2023-01-27T12:58:39.059Z,8.77
2023-01-27T13:01:34.062Z,6.82
2023-01-27T13:04:09.409Z,7.13
2023-01-27T13:06:43.582Z,7.32
2023-01-27T13:09:39.360Z,7.38
2023-01-27T13:12:20.614Z,7.70
2023-01-27T13:14:56.830Z,4.05
2023-01-27T13:17:39.334Z,7.45
2023-01-27T13:20:19.277Z,6.30
2023-01-27T13:22:53.669Z,6.35
2023-01-27T13:25:30.234Z,7.10
2023-01-27T13:28:03.657Z,6.63
2023-01-27T13:30:40.653Z,7.90
2023-01-27T13:33:27.917Z,6.20
2023-01-27T13:36:04.528Z,6.47
2023-01-27T13:38:45.198Z,6.85
2023-01-27T13:41:23.099Z,6.18
2023-01-27T13:44:03.114Z,8.18
2023-01-27T13:46:36.856Z,7.55
2023-01-27T13:49:20.424Z,7.82
2023-01-27T13:51:50.802Z,6.38
2023-01-27T13:54:23.869Z,5.97
2023-01-27T13:57:07.760Z,6.45
2023-01-27T13:59:46.310Z,5.82
2023-01-27T14:02:42.252Z,6.22
2023-01-27T14:05:31.023Z,5.97
2023-01-27T14:08:16.310Z,4.82
2023-01-27T14:11:04.448Z,8.38
2023-01-27T14:13:47.536Z,6.28
2023-01-27T14:16:27.907Z,7.80
2023-01-27T14:19:03.822Z,8.00
2023-01-27T14:21:49.828Z,8.23
2023-01-27T14:24:28.127Z,6.78
2023-01-27T14:27:07.852Z,8.52
2023-01-27T14:29:45.087Z,7.72
2023-01-27T14:32:23.653Z,7.25
2023-01-27T14:35:10.048Z,7.03
2023-01-27T14:37:52.681Z,8.30
2023-01-27T14:40:27.809Z,8.20
2023-01-27T14:43:11.140Z,9.82
2023-01-27T14:45:46.440Z,12.65
2023-01-27T14:48:32.809Z,12.95
2023-01-27T14:51:12.212Z,17.88
2023-01-27T14:53:57.384Z,11.65
2023-01-27T14:56:42.568Z,11.30
2023-01-27T14:59:27.509Z,12.23
2023-01-27T15:02:05.862Z,12.38
2023-01-27T15:04:45.399Z,11.38
2023-01-27T15:07:20.897Z,9.18
2023-01-27T15:10:13.413Z,10.95
2023-01-27T15:13:11.239Z,9.88
2023-01-27T15:15:57.909Z,10.02
2023-01-27T15:18:48.356Z,10.40
2023-01-27T15:21:41.101Z,8.90
2023-01-27T15:24:31.014Z,8.25
2023-01-27T15:27:04.355Z,8.52
2023-01-27T15:29:35.842Z,9.13
2023-01-27T15:32:31.076Z,11.00
2023-01-27T15:35:31.740Z,10.65
2023-01-27T15:38:11.188Z,8.57
2023-01-27T15:41:00.135Z,9.98
2023-01-27T15:43:35.719Z,8.27
2023-01-27T15:46:26.988Z,9.82
2023-01-27T15:49:00.629Z,10.90
2023-01-27T15:51:34.435Z,12.18
2023-01-27T15:54:05.923Z,10.98
2023-01-27T15:56:48.651Z,11.98
2023-01-27T15:59:27.274Z,11.65
2023-01-27T16:02:08.450Z,10.90
2023-01-27T16:04:39.028Z,10.27
2023-01-27T16:07:25.630Z,11.25
2023-01-27T16:10:00.201Z,10.85
2023-01-27T16:12:43.759Z,10.02
2023-01-27T16:15:35.337Z,10.87
2023-01-27T16:18:27.710Z,9.85
2023-01-27T16:21:06.739Z,10.73
2023-01-27T16:23:45.407Z,17.10
2023-01-27T16:26:31.196Z,12.77
2023-01-27T16:29:33.012Z,12.43
2023-01-27T16:32:09.787Z,7.50
2023-01-27T16:34:47.110Z,6.68
2023-01-27T16:37:26.802Z,8.93
2023-01-27T16:40:02.519Z,9.05
2023-01-27T16:42:36.009Z,8.18
2023-01-27T16:45:18.480Z,9.02
2023-01-27T16:47:55.466Z,7.05
2023-01-27T16:50:37.237Z,8.48
2023-01-27T16:53:10.033Z,6.32
2023-01-27T16:55:40.593Z,8.40
2023-01-27T16:58:21.530Z,7.75
2023-01-27T17:00:53.709Z,9.35
2023-01-27T17:03:34.262Z,8.02
2023-01-27T17:06:07.420Z,7.03
2023-01-27T17:08:46.984Z,7.53
2023-01-27T17:11:26.822Z,7.50
2023-01-27T17:14:02.596Z,5.80
2023-01-27T17:16:37.262Z,5.47
2023-01-27T17:19:14.379Z,8.30
2023-01-27T17:21:48.459Z,9.52
2023-01-27T17:24:24.298Z,9.52
2023-01-27T17:27:04.576Z,4.85
2023-01-27T17:29:40.600Z,6.03
2023-01-27T17:32:23.416Z,5.55
2023-01-27T17:34:59.122Z,5.07
2023-01-27T17:37:32.594Z,5.65
2023-01-27T17:40:05.298Z,5.43
2023-01-27T17:42:37.391Z,4.05
2023-01-27T17:45:25.678Z,4.88
2023-01-27T17:47:56.525Z,3.50
2023-01-27T17:50:40.230Z,3.55
2023-01-27T17:53:14.297Z,6.47
2023-01-27T17:55:44.471Z,4.90
2023-01-27T17:58:26.121Z,4.30
2023-01-27T18:00:59.193Z,6.00
2023-01-27T18:03:34.866Z,5.72
2023-01-27T18:06:09.644Z,5.03
2023-01-27T18:08:40.484Z,6.68
2023-01-27T18:11:25.526Z,6.70
2023-01-27T18:13:57.146Z,6.22
2023-01-27T18:16:27.667Z,7.03
2023-01-27T18:19:08.599Z,4.63
2023-01-27T18:21:41.542Z,6.50
2023-01-27T18:24:23.910Z,5.18
2023-01-27T18:26:54.532Z,4.13
2023-01-27T18:29:31.174Z,6.40
2023-01-27T18:32:12.503Z,5.05
2023-01-27T18:34:52.951Z,4.53
2023-01-27T18:37:33.985Z,4.78
2023-01-27T18:40:24.687Z,5.53
2023-01-27T18:42:56.405Z,6.45
2023-01-27T18:45:27.280Z,6.32
2023-01-27T18:47:59.705Z,5.43
2023-01-27T18:50:31.501Z,4.55
2023-01-27T18:53:04.932Z,5.53
2023-01-27T18:55:35.828Z,5.03
2023-01-27T18:58:06.565Z,6.70
2023-01-27T19:00:41.077Z,4.43
2023-01-27T19:03:19.427Z,6.35
2023-01-27T19:05:51.515Z,5.82
2023-01-27T19:08:28.819Z,5.03
2023-01-27T19:10:59.282Z,7.05
2023-01-27T19:13:29.963Z,5.50
2023-01-27T19:16:01.649Z,4.22
2023-01-27T19:18:35.544Z,5.93
2023-01-27T19:21:06.652Z,3.25
2023-01-27T19:23:44.488Z,6.63
2023-01-27T19:26:20.309Z,5.95
2023-01-27T19:28:53.863Z,6.30
2023-01-27T19:31:24.933Z,6.25
2023-01-27T19:33:57.747Z,6.95
2023-01-27T19:36:32.770Z,8.02
2023-01-27T19:39:15.119Z,7.93
2023-01-27T19:41:46.853Z,6.97
2023-01-27T19:44:18.137Z,6.45
2023-01-27T19:46:48.637Z,8.18
2023-01-27T19:49:21.012Z,9.05
2023-01-27T19:51:51.642Z,8.48
2023-01-27T19:54:24.822Z,6.90
2023-01-27T19:56:55.444Z,7.20
2023-01-27T19:59:25.955Z,8.50
2023-01-27T20:01:56.926Z,8.00
2023-01-27T20:04:28.037Z,7.82
2023-01-27T20:06:58.678Z,7.45
2023-01-27T20:09:31.547Z,8.15
2023-01-27T20:12:02.029Z,8.13
2023-01-27T20:14:32.396Z,8.80
2023-01-27T20:17:02.960Z,8.95
2023-01-27T20:19:33.573Z,7.95
2023-01-27T20:22:04.223Z,5.82
2023-01-27T20:24:42.830Z,7.03
2023-01-27T20:27:13.382Z,7.80
2023-01-27T20:29:45.075Z,8.18
2023-01-27T20:32:15.639Z,7.55
2023-01-27T20:34:46.218Z,7.22
2023-01-27T20:37:17.572Z,8.30
2023-01-27T20:39:51.029Z,6.85
2023-01-27T20:42:22.648Z,9.05
2023-01-27T20:44:54.269Z,8.90
2023-01-27T20:47:24.871Z,8.65
2023-01-27T20:49:55.236Z,8.32
2023-01-27T20:52:26.626Z,7.22
2023-01-27T20:54:59.781Z,4.68
2023-01-27T20:57:33.870Z,7.47
2023-01-27T21:00:04.995Z,6.90
2023-01-27T21:02:35.684Z,6.95
2023-01-27T21:05:06.187Z,7.40
2023-01-27T21:07:38.936Z,7.85
2023-01-27T21:10:13.586Z,7.85
2023-01-27T21:12:46.173Z,6.43
2023-01-27T21:15:16.833Z,4.57
2023-01-27T21:17:47.651Z,5.25
2023-01-27T21:20:18.147Z,5.32
2023-01-27T21:22:49.677Z,5.47
2023-01-27T21:25:22.669Z,4.13
2023-01-27T21:27:53.079Z,5.65
2023-01-27T21:30:25.765Z,6.47
2023-01-27T21:32:56.076Z,5.65
2023-01-27T21:35:26.655Z,6.00
2023-01-27T21:37:57.297Z,7.10
2023-01-27T21:40:30.881Z,4.65
2023-01-27T21:43:13.631Z,5.13
2023-01-27T21:45:43.893Z,5.15
2023-01-27T21:48:15.246Z,3.58
2023-01-27T21:50:48.373Z,5.22
2023-01-27T21:53:18.666Z,3.40
2023-01-27T21:55:51.745Z,5.10
2023-01-27T21:58:22.238Z,6.23
2023-01-27T22:00:52.600Z,4.03
2023-01-27T22:03:24.141Z,5.20
2023-01-27T22:05:54.485Z,5.78
2023-01-27T22:08:25.083Z,4.85
2023-01-27T22:10:57.880Z,4.53
2023-01-27T22:13:29.451Z,5.32
2023-01-27T22:15:59.599Z,5.90
2023-01-27T22:18:30.081Z,4.47
2023-01-27T22:21:03.786Z,4.57
2023-01-27T22:23:34.003Z,5.40
2023-01-27T22:26:10.189Z,5.20
2023-01-27T22:28:40.414Z,6.22
2023-01-27T22:31:10.791Z,5.78
2023-01-27T22:33:41.065Z,6.20
2023-01-27T22:36:12.895Z,5.45
2023-01-27T22:38:43.259Z,5.57
2023-01-27T22:41:16.213Z,4.78
2023-01-27T22:43:46.702Z,4.77
2023-01-27T22:46:16.899Z,5.95
2023-01-27T22:48:50.131Z,5.93
2023-01-27T22:51:20.696Z,5.17
2023-01-27T22:53:50.937Z,5.40
2023-01-27T22:56:23.968Z,5.43
2023-01-27T22:58:54.402Z,5.47
2023-01-27T23:01:25.220Z,4.72
2023-01-27T23:03:55.610Z,5.65
2023-01-27T23:06:25.893Z,5.40
2023-01-27T23:08:56.021Z,6.03
2023-01-27T23:11:29.125Z,5.30
2023-01-27T23:13:59.283Z,6.20
2023-01-27T23:16:29.856Z,6.55
2023-01-27T23:19:00.054Z,6.07
2023-01-27T23:21:31.666Z,6.03
2023-01-27T23:24:01.960Z,5.85
2023-01-27T23:26:34.979Z,6.22
2023-01-27T23:29:10.804Z,5.65
2023-01-27T23:31:50.361Z,6.15
2023-01-27T23:34:20.968Z,5.68
2023-01-27T23:36:51.408Z,5.93
2023-01-27T23:39:21.550Z,5.45
2023-01-27T23:41:54.659Z,5.03
2023-01-27T23:44:24.813Z,4.88
2023-01-27T23:46:55.044Z,5.38
2023-01-27T23:49:25.561Z,5.72
2023-01-27T23:51:55.826Z,5.47
2023-01-27T23:54:26.191Z,6.15
2023-01-27T23:56:59.179Z,5.25
2023-01-27T23:59:29.450Z,6.38
